Weather at Gimli Industrial Park Airport

Public forecast

Using degrees Celsius for public forecast. Weather courtesy of forecast.io.

Closest aviation weather report (METAR) to Gimli Industrial Park Airport

Closest report is Winnipeg / James Armstrong Richardson International Airport, 43.8 nm (81.1 km) S. Retrieved 2020/10/28 01:00 UTC (57 minutes ago):

CYWG 280100Z 22008KT 15SM FEW025 BKN041 BKN250 01/M01 A2956 RMK SC1SC6CI1 SC TR SLP025

Closest aviation forecast (TAF) to Gimli Industrial Park Airport

Closest forecast is Winnipeg / James Armstrong Richardson International Airport, 43.8 nm (81.1 km) S. Retrieved 2020-10-28 00:42 UTC (1 hour ago):

TAF CYWG 272341Z 2800/2824 21008KT P6SM SCT004 OVC030 TEMPO 2800/2801 5SM -DZ BR BKN004 OVC030 FM280100 27010KT P6SM SCT012 OVC030 TEMPO 2801/2805 4SM -RASN BR OVC012 FM280500 28006KT P6SM SCT008 OVC025 BECMG 2805/2807 2SM -SN OVC008 FM280800 35006KT 6SM -SN OVC012 TEMPO 2808/2814 2SM -SN BR OVC006 FM281400 34012KT P6SM BKN030 TEMPO 2814/2819 4SM -SN OVC020 BECMG 2815/2817 34015G25KT FM281900 36015G25KT P6SM BKN025 RMK NXT FCST BY 280600Z